Time;durP1;ratioP1;P1;durP2;ratioP2;P2;SDS_P1;SDS_P2;PMS_P1;PMS_P2;Temp;Humidity;BMP_temperature;BMP_pressure;BME280_temperature;BME280_humidity;BME280_pressure;Samples;Min_cycle;Max_cycle;Signal;HPM_P1;HPM_P2
2023/12/10 00:01:28;;;;;;;7.37;2.13;;;11.00;99.90;;;;;;5049057;28;20212;-88
2023/12/10 00:03:53;;;;;;;6.60;2.40;;;10.40;99.90;;;;;;5051292;28;20228;-88
2023/12/10 00:06:19;;;;;;;6.40;2.00;;;10.70;99.90;;;;;;5047068;28;20183;-88
2023/12/10 00:08:44;;;;;;;4.97;2.10;;;10.30;99.90;;;;;;5053001;28;20179;-88
2023/12/10 00:11:10;;;;;;;9.97;2.47;;;10.70;99.90;;;;;;5047353;28;20242;-88
2023/12/10 00:13:35;;;;;;;7.30;2.27;;;10.40;99.90;;;;;;5053379;28;20558;-88
2023/12/10 00:16:01;;;;;;;5.47;2.23;;;10.40;99.90;;;;;;5051662;28;20222;-88
2023/12/10 00:18:26;;;;;;;12.40;2.50;;;10.40;99.90;;;;;;5054854;28;20606;-88
2023/12/10 00:20:52;;;;;;;8.00;3.23;;;10.80;99.90;;;;;;5050619;28;20207;-88
2023/12/10 00:23:17;;;;;;;5.23;2.53;;;10.20;99.90;;;;;;5056933;28;20662;-88
2023/12/10 00:25:44;;;;;;;8.83;2.47;;;10.60;99.90;;;;;;5050621;28;20184;-88
2023/12/10 00:28:10;;;;;;;5.30;2.08;;;10.20;99.90;;;;;;5055942;28;20524;-88
2023/12/10 00:30:37;;;;;;;9.13;2.60;;;10.10;99.90;;;;;;5059760;28;20724;-88
2023/12/10 00:33:03;;;;;;;13.55;3.10;;;10.10;99.90;;;;;;5057038;28;20197;-88
2023/12/10 00:35:29;;;;;;;8.90;3.38;;;10.10;99.90;;;;;;5055388;28;20483;-88
2023/12/10 00:37:54;;;;;;;10.40;2.53;;;10.20;99.90;;;;;;5052837;28;20267;-88
2023/12/10 00:40:21;;;;;;;8.40;2.50;;;10.20;99.90;;;;;;5048946;28;20214;-88
2023/12/10 00:42:46;;;;;;;8.20;2.83;;;10.50;99.90;;;;;;5058043;28;20181;-88
2023/12/10 00:45:12;;;;;;;7.53;4.20;;;10.10;99.90;;;;;;5065790;28;20209;-88
2023/12/10 00:47:38;;;;;;;9.20;2.87;;;10.20;99.90;;;;;;5056484;28;20417;-88
2023/12/10 00:50:07;;;;;;;12.80;3.20;;;10.30;99.90;;;;;;5061327;28;20214;-88
2023/12/10 00:52:33;;;;;;;9.98;3.45;;;10.00;99.90;;;;;;5085581;28;20183;-88
2023/12/10 00:54:58;;;;;;;6.50;2.40;;;9.90;99.90;;;;;;5070634;28;20221;-88
2023/12/10 00:57:24;;;;;;;6.13;2.50;;;10.10;99.90;;;;;;5055241;28;20195;-88
2023/12/10 00:59:50;;;;;;;14.13;3.33;;;10.50;99.90;;;;;;5049455;28;20178;-88
2023/12/10 01:02:15;;;;;;;12.73;3.37;;;10.10;99.90;;;;;;5049247;28;20207;-88
2023/12/10 01:04:41;;;;;;;6.80;3.30;;;10.60;99.90;;;;;;5049847;28;20754;-88
2023/12/10 01:07:07;;;;;;;12.07;3.17;;;10.30;99.90;;;;;;5052288;28;20842;-88
2023/12/10 01:09:35;;;;;;;13.20;3.20;;;10.60;99.90;;;;;;5050445;28;20275;-88
2023/12/10 01:12:01;;;;;;;10.88;2.50;;;10.60;99.90;;;;;;5053873;28;20528;-88
2023/12/10 01:14:29;;;;;;;14.27;3.72;;;10.90;99.90;;;;;;5041078;28;20688;-88
2023/12/10 01:16:55;;;;;;;9.43;3.15;;;10.10;99.90;;;;;;5057934;28;20185;-88
2023/12/10 01:19:20;;;;;;;13.23;3.17;;;10.30;99.90;;;;;;5050149;28;20589;-88
2023/12/10 01:21:47;;;;;;;9.00;4.07;;;10.60;99.90;;;;;;5053304;28;20250;-88
2023/12/10 01:24:18;;;;;;;10.85;3.08;;;10.90;99.90;;;;;;5028367;28;20211;-88
2023/12/10 01:26:44;;;;;;;10.43;3.10;;;10.50;99.90;;;;;;5049597;28;20178;-88
2023/12/10 01:29:10;;;;;;;8.38;3.05;;;10.00;99.90;;;;;;5072416;28;20191;-88
2023/12/10 01:31:36;;;;;;;9.77;3.13;;;10.50;99.90;;;;;;5063937;28;20188;-88
2023/12/10 01:34:03;;;;;;;12.63;3.87;;;10.20;99.90;;;;;;5049778;28;20214;-88
2023/12/10 01:36:29;;;;;;;15.43;3.80;;;10.40;99.90;;;;;;5052554;28;20675;-88
2023/12/10 01:38:56;;;;;;;12.65;3.50;;;10.30;99.90;;;;;;5050063;28;20293;-88
2023/12/10 01:41:23;;;;;;;11.68;4.35;;;10.80;99.90;;;;;;5064481;28;20208;-88
2023/12/10 01:43:49;;;;;;;18.73;4.25;;;10.50;99.90;;;;;;5048743;28;20204;-88
2023/12/10 01:46:15;;;;;;;12.30;4.33;;;10.70;99.90;;;;;;5062697;28;20623;-88
2023/12/10 01:48:42;;;;;;;15.90;3.40;;;10.10;99.90;;;;;;5055799;28;20172;-88
2023/12/10 01:51:08;;;;;;;11.68;2.92;;;10.70;99.90;;;;;;5055528;28;20188;-88
2023/12/10 01:53:34;;;;;;;11.50;3.28;;;10.50;99.90;;;;;;5058643;28;20250;-88
2023/12/10 01:55:59;;;;;;;10.63;3.30;;;10.80;99.90;;;;;;5054945;28;20181;-88
2023/12/10 01:58:27;;;;;;;14.07;3.20;;;11.10;99.90;;;;;;5053897;28;20462;-88
2023/12/10 02:00:53;;;;;;;12.80;4.28;;;10.50;99.90;;;;;;5050441;28;20221;-88
2023/12/10 02:03:19;;;;;;;12.87;3.20;;;10.40;99.90;;;;;;5050312;28;20210;-88
2023/12/10 02:05:44;;;;;;;12.53;4.00;;;10.50;99.90;;;;;;5051499;28;20819;-87
2023/12/10 02:08:10;;;;;;;13.10;3.43;;;10.40;99.90;;;;;;5049938;28;20179;-88
2023/12/10 02:10:35;;;;;;;9.13;3.37;;;10.50;99.90;;;;;;5052773;28;20705;-88
2023/12/10 02:13:02;;;;;;;13.67;3.47;;;10.50;99.90;;;;;;5050361;28;20193;-87
2023/12/10 02:15:28;;;;;;;14.57;4.63;;;10.70;99.90;;;;;;5049626;28;20249;-88
2023/12/10 02:17:54;;;;;;;9.73;3.30;;;10.40;99.90;;;;;;5046782;28;20675;-88
2023/12/10 02:20:20;;;;;;;15.10;3.37;;;10.30;99.90;;;;;;5048939;28;20945;-88
2023/12/10 02:23:14;;;;;;;10.40;3.33;;;10.90;99.90;;;;;;5053927;28;20180;-88
2023/12/10 02:25:39;;;;;;;12.20;4.20;;;10.60;99.90;;;;;;5064556;28;20186;-88
2023/12/10 02:28:07;;;;;;;10.50;3.13;;;10.90;99.90;;;;;;5073883;28;20197;-88
2023/12/10 02:30:33;;;;;;;9.52;3.55;;;10.70;99.90;;;;;;5069319;28;20207;-88
2023/12/10 02:33:00;;;;;;;14.57;4.13;;;10.80;99.90;;;;;;5051477;28;20172;-88
2023/12/10 02:35:26;;;;;;;9.18;2.88;;;10.30;99.90;;;;;;5051625;28;20220;-88
2023/12/10 02:37:52;;;;;;;10.75;3.00;;;10.00;99.90;;;;;;5053674;28;20228;-88
2023/12/10 02:40:18;;;;;;;10.10;3.67;;;10.90;99.90;;;;;;5052641;28;20214;-88
2023/12/10 02:42:45;;;;;;;9.60;3.70;;;10.40;99.90;;;;;;5054121;28;20529;-87
2023/12/10 02:45:11;;;;;;;9.38;3.10;;;10.80;99.90;;;;;;5046508;28;20287;-88
2023/12/10 02:47:37;;;;;;;5.87;3.13;;;10.40;99.90;;;;;;5053928;28;20203;-88
2023/12/10 02:50:02;;;;;;;11.23;2.60;;;9.70;99.90;;;;;;5040885;28;20570;-88
2023/12/10 02:52:28;;;;;;;11.87;2.57;;;9.90;99.90;;;;;;5053084;28;20452;-88
2023/12/10 02:54:54;;;;;;;7.73;2.50;;;10.00;99.90;;;;;;5055746;28;20488;-88
2023/12/10 02:57:19;;;;;;;7.87;2.00;;;9.70;99.90;;;;;;5046973;28;20559;-88
2023/12/10 02:59:45;;;;;;;6.53;2.33;;;10.50;99.90;;;;;;5050601;28;20551;-88
2023/12/10 03:02:10;;;;;;;10.40;2.73;;;9.80;99.90;;;;;;5054727;28;20194;-88
2023/12/10 03:04:36;;;;;;;6.40;2.60;;;9.30;99.90;;;;;;5049802;28;20198;-88
2023/12/10 03:07:01;;;;;;;8.63;1.80;;;9.60;99.90;;;;;;5041719;28;20274;-88
2023/12/10 03:09:27;;;;;;;6.40;1.87;;;9.10;99.90;;;;;;5047015;28;20214;-88
2023/12/10 03:11:52;;;;;;;6.37;1.80;;;9.40;99.90;;;;;;5057629;28;20428;-88
2023/12/10 03:14:18;;;;;;;7.50;2.20;;;10.20;99.90;;;;;;5051049;28;20208;-88
2023/12/10 03:16:43;;;;;;;9.60;2.90;;;8.70;99.90;;;;;;5047558;28;20178;-88
2023/12/10 03:19:10;;;;;;;4.20;1.60;;;8.90;99.90;;;;;;5053093;28;20177;-88
2023/12/10 03:21:35;;;;;;;6.90;1.50;;;8.80;99.90;;;;;;5046502;28;20996;-88
2023/12/10 03:24:01;;;;;;;6.17;1.87;;;8.80;99.90;;;;;;5052761;28;20288;-88
2023/12/10 03:26:26;;;;;;;7.17;2.00;;;8.60;99.90;;;;;;5046159;28;20197;-88
2023/12/10 03:28:52;;;;;;;3.10;1.47;;;8.60;99.90;;;;;;5053054;28;20676;-88
2023/12/10 03:31:17;;;;;;;6.93;2.00;;;8.60;99.90;;;;;;5051925;28;20190;-88
2023/12/10 03:33:43;;;;;;;3.37;1.40;;;8.30;99.90;;;;;;5049611;28;20297;-88
2023/12/10 03:36:09;;;;;;;7.70;1.73;;;8.80;99.90;;;;;;5047815;28;20220;-88
2023/12/10 03:38:36;;;;;;;8.03;2.90;;;8.40;99.90;;;;;;5091536;22;20227;-86
2023/12/10 03:41:02;;;;;;;4.00;1.67;;;8.80;99.90;;;;;;5079998;28;20431;-86
2023/12/10 03:43:28;;;;;;;5.72;1.60;;;8.50;99.90;;;;;;5071288;28;20202;-86
2023/12/10 03:45:53;;;;;;;9.77;2.20;;;8.50;99.90;;;;;;5063557;28;20203;-86
2023/12/10 03:48:19;;;;;;;3.67;1.40;;;8.30;99.90;;;;;;5059059;28;20253;-87
2023/12/10 03:50:45;;;;;;;5.77;1.90;;;8.00;99.90;;;;;;5056187;28;20242;-87
2023/12/10 03:53:11;;;;;;;4.40;1.88;;;8.80;99.90;;;;;;5059098;28;20170;-86
2023/12/10 03:55:36;;;;;;;9.57;2.17;;;8.60;99.90;;;;;;5056647;28;20205;-86
2023/12/10 03:58:02;;;;;;;11.50;2.80;;;8.70;99.90;;;;;;5092323;28;20190;-87
2023/12/10 04:00:27;;;;;;;8.70;2.97;;;9.00;99.90;;;;;;5054901;28;20334;-87
2023/12/10 04:02:53;;;;;;;5.37;2.47;;;8.70;99.90;;;;;;5088891;28;20237;-87
2023/12/10 04:05:19;;;;;;;5.33;2.13;;;8.10;99.90;;;;;;5049184;28;20241;-87
2023/12/10 04:07:48;;;;;;;8.57;2.78;;;9.00;99.90;;;;;;5056873;28;20171;-87
2023/12/10 04:10:14;;;;;;;7.72;2.58;;;8.90;99.90;;;;;;5050287;28;20194;-87
2023/12/10 04:12:40;;;;;;;6.38;2.40;;;9.00;99.90;;;;;;5054838;28;20671;-87
2023/12/10 04:15:06;;;;;;;5.70;2.60;;;9.20;99.90;;;;;;5060231;28;20206;-86
2023/12/10 04:17:31;;;;;;;4.87;2.03;;;9.10;99.90;;;;;;5055585;28;20287;-86
2023/12/10 04:19:57;;;;;;;7.70;2.23;;;9.10;99.90;;;;;;5059850;28;20459;-86
2023/12/10 04:22:22;;;;;;;12.03;2.80;;;9.10;99.90;;;;;;5050271;28;20277;-86
2023/12/10 04:24:48;;;;;;;8.27;2.20;;;9.10;99.90;;;;;;5080749;28;20209;-87
2023/12/10 04:27:13;;;;;;;7.63;3.00;;;9.70;99.90;;;;;;5052026;28;20200;-87
2023/12/10 04:29:39;;;;;;;9.50;2.57;;;9.40;99.90;;;;;;5040618;28;20182;-86
2023/12/10 04:32:04;;;;;;;7.77;2.40;;;9.10;99.90;;;;;;5036195;28;20191;-87
2023/12/10 04:34:30;;;;;;;8.27;2.10;;;9.50;99.90;;;;;;5033375;28;20216;-82
2023/12/10 04:36:55;;;;;;;5.37;3.13;;;9.40;99.90;;;;;;5061157;28;20220;-82
2023/12/10 04:39:21;;;;;;;7.10;2.13;;;9.40;99.90;;;;;;5040171;28;20615;-82
2023/12/10 04:41:46;;;;;;;6.20;2.30;;;9.40;99.90;;;;;;5047249;28;20235;-82
2023/12/10 04:44:12;;;;;;;9.70;2.77;;;9.60;99.90;;;;;;5039660;28;20203;-82
2023/12/10 04:46:38;;;;;;;7.57;3.60;;;9.50;99.90;;;;;;5040263;28;20191;-82
2023/12/10 04:49:04;;;;;;;6.32;2.03;;;9.50;99.90;;;;;;5046095;28;20181;-82
2023/12/10 04:51:30;;;;;;;8.90;2.50;;;9.40;99.90;;;;;;5045599;28;20205;-82
2023/12/10 04:53:55;;;;;;;8.83;2.47;;;9.90;99.90;;;;;;5040340;28;20289;-82
2023/12/10 04:56:21;;;;;;;10.27;2.20;;;9.90;99.90;;;;;;5046542;28;20445;-82
2023/12/10 04:58:46;;;;;;;7.00;1.90;;;9.50;99.90;;;;;;5042281;28;20196;-82
2023/12/10 05:01:12;;;;;;;10.27;2.90;;;9.80;99.90;;;;;;5043314;28;20206;-82
2023/12/10 05:03:37;;;;;;;7.47;2.23;;;9.30;99.90;;;;;;5043903;28;20202;-82
2023/12/10 05:06:03;;;;;;;8.20;2.53;;;9.80;99.90;;;;;;5045535;28;20180;-82
2023/12/10 05:08:28;;;;;;;8.30;2.27;;;9.40;99.90;;;;;;5046331;28;20730;-81
2023/12/10 05:10:54;;;;;;;8.90;2.60;;;9.50;99.90;;;;;;5038835;28;20192;-82
2023/12/10 05:13:19;;;;;;;7.83;2.13;;;9.50;99.90;;;;;;5043866;28;20194;-82
2023/12/10 05:15:45;;;;;;;6.63;2.57;;;;;;;;;;5040956;28;20194;-80
2023/12/10 05:18:11;;;;;;;7.43;1.90;;;9.50;99.90;;;;;;5041406;28;20194;-82
2023/12/10 05:20:36;;;;;;;4.70;1.90;;;10.00;99.90;;;;;;5043544;28;20489;-86
2023/12/10 05:23:02;;;;;;;11.53;2.40;;;9.80;99.90;;;;;;5040659;28;20211;-85
2023/12/10 05:25:28;;;;;;;6.20;2.13;;;9.50;99.90;;;;;;5051101;28;20207;-84
2023/12/10 05:27:54;;;;;;;7.40;2.07;;;9.60;99.90;;;;;;5051732;28;20198;-83
2023/12/10 05:30:20;;;;;;;8.00;3.42;;;9.70;99.90;;;;;;5043376;28;20453;-85
2023/12/10 05:32:45;;;;;;;10.43;3.43;;;9.60;99.90;;;;;;5045084;28;20187;-85
2023/12/10 05:35:11;;;;;;;4.50;2.00;;;9.50;99.90;;;;;;5044268;28;20204;-83
2023/12/10 05:37:36;;;;;;;5.13;1.67;;;9.70;99.90;;;;;;5040044;28;20203;-86
2023/12/10 05:40:02;;;;;;;7.40;2.47;;;9.30;99.90;;;;;;5063069;28;20194;-83
2023/12/10 05:42:28;;;;;;;8.40;2.15;;;9.50;99.90;;;;;;5064519;28;20241;-83
2023/12/10 05:44:55;;;;;;;6.40;2.23;;;9.40;99.90;;;;;;5068110;28;20863;-84
2023/12/10 05:47:21;;;;;;;8.25;2.45;;;9.60;99.90;;;;;;5040520;28;20254;-83
2023/12/10 05:49:46;;;;;;;8.55;2.05;;;9.50;99.90;;;;;;5056472;28;20590;-81
2023/12/10 05:52:12;;;;;;;8.30;2.40;;;9.50;99.90;;;;;;5056286;28;20195;-83
2023/12/10 05:54:37;;;;;;;9.17;2.73;;;9.80;99.90;;;;;;5040336;28;20278;-83
2023/12/10 05:57:04;;;;;;;6.72;1.80;;;9.50;99.90;;;;;;5044835;28;20187;-82
2023/12/10 05:59:30;;;;;;;9.05;2.30;;;9.30;99.90;;;;;;5042211;28;20237;-83
2023/12/10 06:01:56;;;;;;;10.17;2.30;;;9.40;99.90;;;;;;5041037;28;20622;-82
2023/12/10 06:04:21;;;;;;;3.50;1.60;;;9.50;99.90;;;;;;5042021;28;20234;-83
2023/12/10 06:06:47;;;;;;;6.27;1.57;;;9.30;99.90;;;;;;5042532;28;20249;-82
2023/12/10 06:09:14;;;;;;;11.60;2.73;;;9.60;99.90;;;;;;5039821;28;20179;-83
2023/12/10 06:11:40;;;;;;;5.70;1.80;;;9.40;99.90;;;;;;5041063;28;20243;-83
2023/12/10 06:14:05;;;;;;;6.30;2.10;;;9.90;99.90;;;;;;5040459;28;20204;-83
2023/12/10 06:16:31;;;;;;;7.20;1.83;;;9.60;99.90;;;;;;5039945;28;20214;-83
2023/12/10 06:18:56;;;;;;;7.93;1.87;;;9.80;99.90;;;;;;5037082;28;20647;-83
2023/12/10 06:21:22;;;;;;;3.57;1.83;;;9.80;99.90;;;;;;5033053;28;20211;-83
2023/12/10 06:23:47;;;;;;;12.07;2.33;;;9.50;99.90;;;;;;5048537;28;20206;-84
2023/12/10 06:26:13;;;;;;;8.00;2.40;;;9.40;99.90;;;;;;5039532;28;20183;-85
2023/12/10 06:28:38;;;;;;;10.17;2.70;;;9.80;99.90;;;;;;5041608;28;20251;-83
2023/12/10 06:31:04;;;;;;;7.87;2.00;;;9.80;99.90;;;;;;5047932;28;20195;-84
2023/12/10 06:33:30;;;;;;;7.40;2.70;;;9.50;99.90;;;;;;5059931;28;20215;-84
2023/12/10 06:35:55;;;;;;;7.53;2.00;;;9.70;99.90;;;;;;5052461;28;20207;-85
2023/12/10 06:38:21;;;;;;;6.53;2.37;;;10.60;99.90;;;;;;5040901;28;20546;-85
2023/12/10 06:40:46;;;;;;;7.30;2.17;;;9.40;99.90;;;;;;5042667;28;20290;-84
2023/12/10 06:43:12;;;;;;;6.97;1.83;;;9.60;99.90;;;;;;5037651;28;20223;-84
2023/12/10 06:45:37;;;;;;;8.30;2.70;;;9.30;99.90;;;;;;5038522;28;20646;-84
2023/12/10 06:48:03;;;;;;;6.97;2.10;;;9.30;99.90;;;;;;5040105;28;20187;-84
2023/12/10 06:50:30;;;;;;;5.80;2.13;;;9.80;99.90;;;;;;5040284;28;20189;-85
2023/12/10 06:52:56;;;;;;;7.57;2.70;;;9.80;99.90;;;;;;5042302;28;20449;-85
2023/12/10 06:55:22;;;;;;;10.32;2.40;;;9.30;99.90;;;;;;5053965;28;20208;-83
2023/12/10 06:57:48;;;;;;;3.95;1.60;;;9.50;99.90;;;;;;5039640;28;20220;-84
2023/12/10 07:00:14;;;;;;;5.90;1.83;;;9.50;99.90;;;;;;5054254;28;20205;-84
2023/12/10 07:02:40;;;;;;;7.00;2.05;;;9.50;99.90;;;;;;5059777;28;20234;-83
2023/12/10 07:05:06;;;;;;;5.57;2.70;;;9.90;99.90;;;;;;5040148;28;20202;-85
2023/12/10 07:07:31;;;;;;;5.07;2.05;;;9.60;99.90;;;;;;5040195;28;20226;-85
2023/12/10 07:09:57;;;;;;;6.20;1.87;;;9.80;99.90;;;;;;5037631;28;20444;-85
2023/12/10 07:12:23;;;;;;;7.33;2.17;;;9.50;99.90;;;;;;5068135;28;20192;-85
2023/12/10 07:14:48;;;;;;;4.87;2.20;;;9.80;99.90;;;;;;5037140;28;20253;-87
2023/12/10 07:17:14;;;;;;;5.40;2.47;;;9.40;99.90;;;;;;5045169;28;20615;-84
2023/12/10 07:19:40;;;;;;;5.53;1.90;;;9.60;99.90;;;;;;5053951;28;20259;-83
2023/12/10 07:22:06;;;;;;;6.67;1.90;;;9.80;99.90;;;;;;5055234;28;20209;-83
2023/12/10 07:24:31;;;;;;;6.83;2.00;;;9.50;99.90;;;;;;5056527;28;20207;-84
2023/12/10 07:26:57;;;;;;;5.13;2.63;;;9.60;99.90;;;;;;5058511;28;20266;-81
2023/12/10 07:29:23;;;;;;;6.53;2.40;;;9.90;99.90;;;;;;5043421;28;20229;-82
2023/12/10 07:31:49;;;;;;;16.17;3.13;;;10.00;99.90;;;;;;5040324;28;20173;-84
2023/12/10 07:34:14;;;;;;;7.23;2.60;;;9.60;99.90;;;;;;5044638;28;20697;-84
2023/12/10 07:36:40;;;;;;;5.93;2.37;;;9.50;99.90;;;;;;5038412;28;20187;-84
2023/12/10 07:39:07;;;;;;;7.73;2.17;;;9.90;99.90;;;;;;5043817;28;20225;-84
2023/12/10 07:41:33;;;;;;;6.72;2.60;;;9.80;99.90;;;;;;5059036;28;20273;-84
2023/12/10 07:43:58;;;;;;;6.87;2.13;;;9.60;99.90;;;;;;5042949;28;20203;-85
2023/12/10 07:46:24;;;;;;;11.87;3.10;;;9.50;99.90;;;;;;5034191;28;20206;-85
2023/12/10 07:48:50;;;;;;;9.40;1.80;;;9.70;99.90;;;;;;5038123;28;20199;-86
2023/12/10 07:51:15;;;;;;;6.63;2.10;;;9.90;99.90;;;;;;5035550;28;20615;-83
2023/12/10 07:53:42;;;;;;;9.40;2.50;;;9.40;99.90;;;;;;5040834;28;20243;-84
2023/12/10 07:56:08;;;;;;;6.40;2.30;;;9.70;99.90;;;;;;5037669;28;20250;-83
2023/12/10 07:58:35;;;;;;;7.30;2.17;;;9.40;99.90;;;;;;5040342;28;20794;-84
2023/12/10 08:01:02;;;;;;;6.63;2.37;;;9.60;99.90;;;;;;5066495;28;20302;-83
2023/12/10 08:03:27;;;;;;;6.85;1.92;;;10.00;99.90;;;;;;5044876;28;20208;-84
2023/12/10 08:05:53;;;;;;;9.60;3.00;;;10.00;99.90;;;;;;5035845;28;20190;-86
2023/12/10 08:08:18;;;;;;;7.43;2.60;;;9.50;99.90;;;;;;5038679;28;20184;-86
2023/12/10 08:10:44;;;;;;;6.23;2.50;;;9.50;99.90;;;;;;5035152;28;20195;-86
2023/12/10 08:13:09;;;;;;;6.27;2.20;;;9.70;99.90;;;;;;5038921;28;20215;-85
2023/12/10 08:15:35;;;;;;;8.97;2.80;;;9.70;99.90;;;;;;5042775;28;20227;-83
2023/12/10 08:18:00;;;;;;;7.97;2.20;;;10.10;99.90;;;;;;5037412;28;20195;-84
2023/12/10 08:20:26;;;;;;;6.80;2.60;;;9.70;99.90;;;;;;5050696;28;20218;-83
2023/12/10 08:22:52;;;;;;;10.77;2.57;;;9.80;99.90;;;;;;5049989;28;20247;-83
2023/12/10 08:25:17;;;;;;;7.00;2.80;;;9.70;99.90;;;;;;5056634;28;20232;-82
2023/12/10 08:27:43;;;;;;;5.77;2.40;;;9.90;99.90;;;;;;5051857;28;20192;-82
2023/12/10 08:30:09;;;;;;;12.90;2.80;;;9.80;99.90;;;;;;5038886;28;20665;-82
2023/12/10 08:32:34;;;;;;;7.23;2.43;;;9.90;99.90;;;;;;5036656;28;20190;-83
2023/12/10 08:35:00;;;;;;;5.43;2.00;;;10.00;99.90;;;;;;5033619;28;20475;-82
2023/12/10 08:37:25;;;;;;;10.73;3.30;;;10.40;99.90;;;;;;5031982;28;20209;-82
2023/12/10 08:39:51;;;;;;;4.33;1.93;;;9.90;99.90;;;;;;5038050;28;20199;-82
2023/12/10 08:42:16;;;;;;;6.00;2.20;;;9.80;99.90;;;;;;5038765;28;20703;-82
2023/12/10 08:44:42;;;;;;;5.70;1.83;;;10.00;99.90;;;;;;5033830;28;20210;-82
2023/12/10 08:47:08;;;;;;;8.55;2.17;;;10.10;99.90;;;;;;5035583;28;20207;-82
2023/12/10 08:49:33;;;;;;;6.33;1.93;;;10.20;99.90;;;;;;5031350;28;20535;-82
2023/12/10 08:51:59;;;;;;;7.30;1.80;;;9.70;99.90;;;;;;5036825;28;20184;-82
2023/12/10 08:54:25;;;;;;;7.93;2.10;;;10.10;99.90;;;;;;5037381;28;20243;-84
2023/12/10 08:56:50;;;;;;;7.97;2.17;;;10.30;99.90;;;;;;5041058;28;20195;-83
2023/12/10 08:59:16;;;;;;;4.40;1.60;;;10.40;99.90;;;;;;5032848;28;20200;-85
2023/12/10 09:01:41;;;;;;;6.00;2.20;;;10.30;99.90;;;;;;5037555;28;20205;-86
2023/12/10 09:04:07;;;;;;;9.33;2.00;;;10.30;99.90;;;;;;5039639;28;20200;-82
2023/12/10 09:06:34;;;;;;;5.93;1.57;;;10.50;99.90;;;;;;5037254;28;20190;-83
2023/12/10 09:08:59;;;;;;;6.07;2.47;;;10.40;99.90;;;;;;5042124;28;20180;-83
2023/12/10 09:11:25;;;;;;;6.83;2.23;;;10.20;99.90;;;;;;5044032;28;20195;-83
2023/12/10 09:13:50;;;;;;;6.33;2.13;;;9.90;99.90;;;;;;5063151;28;20194;-84
2023/12/10 09:16:18;;;;;;;5.97;2.00;;;10.50;99.90;;;;;;5043978;28;20226;-84
2023/12/10 09:18:44;;;;;;;4.97;1.80;;;10.00;99.90;;;;;;5037277;28;20192;-84
2023/12/10 09:21:10;;;;;;;6.40;2.23;;;10.50;99.90;;;;;;5042667;28;20254;-84
2023/12/10 09:23:35;;;;;;;8.03;2.17;;;10.80;99.90;;;;;;5046794;28;20206;-84
2023/12/10 09:26:01;;;;;;;8.00;1.80;;;11.90;99.40;;;;;;5052588;28;20224;-84
2023/12/10 09:28:28;;;;;;;5.55;1.77;;;12.90;97.00;;;;;;5034222;28;20194;-85
2023/12/10 09:30:53;;;;;;;3.10;1.50;;;14.30;95.90;;;;;;5056695;28;20707;-85
2023/12/10 09:33:19;;;;;;;5.63;2.07;;;14.60;92.90;;;;;;5057146;28;20190;-81
2023/12/10 09:35:44;;;;;;;6.03;1.90;;;14.60;93.20;;;;;;5053211;28;20182;-81
2023/12/10 09:38:10;;;;;;;2.90;1.60;;;13.90;93.40;;;;;;5064469;22;20221;-88
2023/12/10 09:40:38;;;;;;;3.27;1.80;;;14.90;96.00;;;;;;5069391;28;20201;-87
2023/12/10 09:43:04;;;;;;;3.53;1.65;;;13.80;96.90;;;;;;5054500;28;20209;-86
2023/12/10 09:45:29;;;;;;;4.25;1.67;;;12.30;95.70;;;;;;5062218;28;20766;-88
2023/12/10 09:48:11;;;;;;;3.87;1.67;;;12.30;97.40;;;;;;5058238;28;20181;-87
2023/12/10 09:50:41;;;;;;;5.13;2.47;;;12.30;99.10;;;;;;5058857;28;20257;-86
2023/12/10 09:53:10;;;;;;;5.30;2.17;;;12.20;98.10;;;;;;5052041;28;20201;-90
2023/12/10 10:02:50;;;;;;;3.28;1.50;;;11.70;98.60;;;;;;4912461;29;20232;-86
2023/12/10 10:06:02;;;;;;;4.53;1.42;;;12.10;99.00;;;;;;4920618;29;20209;-84
2023/12/10 10:12:33;;;;;;;4.47;1.50;;;11.80;99.90;;;;;;4906476;29;20247;-86
2023/12/10 10:21:17;;;;;;;4.90;1.55;;;13.40;99.90;;;;;;5008968;28;20188;-86
2023/12/10 10:23:45;;;;;;;4.10;2.08;;;12.50;99.40;;;;;;4994035;28;20274;-87
2023/12/10 10:26:23;;;;;;;;;;;;;;;;;;;;;
2023/12/10 10:28:49;;;;;;;4.80;2.30;;;11.80;99.90;;;;;;5032576;28;20189;-87
2023/12/10 10:31:16;;;;;;;4.90;2.08;;;12.60;99.90;;;;;;5036590;28;20182;-88
2023/12/10 10:33:44;;;;;;;6.30;2.20;;;12.10;99.90;;;;;;5032162;28;20209;-85
2023/12/10 10:36:31;;;;;;;;;;;;;;;;;;;;;
2023/12/10 10:39:10;;;;;;;;;;;;;;;;;;;;;
2023/12/10 10:41:52;;;;;;;4.05;1.30;;;9.80;99.90;;;;;;5037934;28;20666;-83
2023/12/10 10:44:30;;;;;;;;;;;;;;;;;;;;;
2023/12/10 10:46:56;;;;;;;5.88;2.22;;;12.60;99.90;;;;;;5031889;28;20689;-87
2023/12/10 10:49:21;;;;;;;6.55;2.00;;;10.80;99.90;;;;;;5031852;28;20236;-86
2023/12/10 10:51:47;;;;;;;5.40;1.73;;;11.40;99.90;;;;;;5032865;28;20190;-88
2023/12/10 10:54:13;;;;;;;6.07;2.23;;;11.40;99.90;;;;;;5031780;28;20689;-86
2023/12/10 10:56:38;;;;;;;4.83;1.60;;;11.50;99.90;;;;;;5029009;28;20392;-87
2023/12/10 10:59:28;;;;;;;7.30;2.03;;;11.30;99.90;;;;;;5033598;28;20204;-87
2023/12/10 11:01:54;;;;;;;4.90;1.33;;;11.50;99.90;;;;;;5030104;28;20213;-86
2023/12/10 11:04:21;;;;;;;6.03;1.87;;;11.70;99.90;;;;;;5032629;28;20228;-87
2023/12/10 11:06:47;;;;;;;6.28;2.20;;;11.80;99.90;;;;;;5031498;28;20186;-86
2023/12/10 11:09:12;;;;;;;5.70;2.13;;;12.00;99.90;;;;;;5022025;28;20247;-87
2023/12/10 11:11:39;;;;;;;5.70;1.87;;;11.90;99.90;;;;;;5016430;28;20445;-89
2023/12/10 11:14:22;;;;;;;6.15;2.17;;;11.50;99.90;;;;;;5030136;28;20217;-88
2023/12/10 11:16:49;;;;;;;4.40;2.00;;;11.50;99.90;;;;;;5028061;28;20189;-87
2023/12/10 11:19:17;;;;;;;7.32;2.00;;;11.80;99.90;;;;;;5036654;28;20192;-86
2023/12/10 11:21:43;;;;;;;6.43;1.80;;;11.30;99.90;;;;;;5055513;28;20221;-87
2023/12/10 11:24:08;;;;;;;5.23;2.10;;;11.70;99.90;;;;;;5033143;28;20208;-85
2023/12/10 11:29:56;;;;;;;6.47;1.80;;;11.60;99.80;;;;;;5032957;28;20700;-86
2023/12/10 11:32:21;;;;;;;3.27;1.90;;;11.20;99.60;;;;;;5034652;28;20182;-86
2023/12/10 11:34:47;;;;;;;5.90;2.10;;;11.00;99.90;;;;;;5034117;28;20213;-86
2023/12/10 11:37:12;;;;;;;4.60;1.40;;;10.90;99.90;;;;;;5040324;28;20928;-86
2023/12/10 11:39:38;;;;;;;4.07;1.73;;;10.60;99.90;;;;;;5034380;28;20539;-87
2023/12/10 11:42:03;;;;;;;4.80;2.27;;;11.50;99.90;;;;;;5039822;28;20441;-87
2023/12/10 11:44:30;;;;;;;5.10;2.17;;;10.90;99.90;;;;;;5055692;28;20208;-86
2023/12/10 11:46:58;;;;;;;6.22;1.67;;;10.90;99.90;;;;;;5050032;28;20214;-86
2023/12/10 11:49:24;;;;;;;5.07;2.25;;;11.30;99.90;;;;;;5032312;28;20289;-87
2023/12/10 11:51:49;;;;;;;6.73;2.40;;;10.80;99.90;;;;;;5031660;28;20560;-86
2023/12/10 11:54:15;;;;;;;4.37;1.90;;;11.10;99.90;;;;;;5030824;28;20209;-86
2023/12/10 11:56:42;;;;;;;7.65;2.08;;;11.00;99.90;;;;;;5029764;28;20190;-86
2023/12/10 11:59:08;;;;;;;7.78;2.42;;;11.10;99.90;;;;;;5029533;28;20681;-86
2023/12/10 12:01:33;;;;;;;5.18;2.03;;;11.10;99.90;;;;;;5031060;28;20209;-86
2023/12/10 12:03:59;;;;;;;6.83;1.97;;;11.00;99.90;;;;;;5030745;28;20271;-86
2023/12/10 12:06:40;;;;;;;7.70;2.30;;;11.30;99.90;;;;;;5030391;28;20282;-87
2023/12/10 12:09:05;;;;;;;6.60;2.42;;;10.70;99.90;;;;;;5031331;28;20181;-87
2023/12/10 12:11:31;;;;;;;7.70;2.73;;;11.20;99.90;;;;;;5031445;28;20236;-86
2023/12/10 12:13:56;;;;;;;6.20;2.10;;;11.40;99.90;;;;;;5030714;28;20213;-87
2023/12/10 12:16:22;;;;;;;5.13;2.27;;;11.20;99.90;;;;;;5031583;28;20212;-87
2023/12/10 12:18:47;;;;;;;7.47;2.50;;;11.20;99.90;;;;;;5031077;28;20186;-88
2023/12/10 12:21:12;;;;;;;6.90;2.57;;;11.30;99.90;;;;;;5028717;28;20690;-87
2023/12/10 12:23:38;;;;;;;8.90;3.20;;;10.70;99.90;;;;;;5030836;28;20216;-88
2023/12/10 12:26:04;;;;;;;7.53;2.87;;;11.00;99.90;;;;;;5030255;28;20206;-87
2023/12/10 12:28:29;;;;;;;5.20;1.73;;;11.20;99.90;;;;;;5029300;28;20231;-88
2023/12/10 12:30:55;;;;;;;4.93;1.97;;;10.90;99.90;;;;;;5030032;28;20236;-87
2023/12/10 12:33:20;;;;;;;7.20;2.00;;;11.60;99.90;;;;;;5028808;28;20190;-87
2023/12/10 12:35:46;;;;;;;5.87;2.57;;;11.40;99.90;;;;;;5029404;28;20315;-87
2023/12/10 12:38:11;;;;;;;7.13;2.53;;;11.50;99.90;;;;;;5026872;28;20200;-87
2023/12/10 12:40:37;;;;;;;4.63;2.23;;;11.20;99.90;;;;;;5029581;28;20178;-87
2023/12/10 12:43:02;;;;;;;5.13;1.80;;;11.50;99.90;;;;;;5027124;28;20285;-87
2023/12/10 12:45:28;;;;;;;7.07;2.80;;;11.30;99.90;;;;;;5027766;28;20206;-87
2023/12/10 12:47:53;;;;;;;5.13;2.43;;;11.50;99.90;;;;;;5029353;28;20197;-88
2023/12/10 12:50:19;;;;;;;7.43;2.20;;;12.00;99.90;;;;;;5028777;28;20257;-87
2023/12/10 12:52:46;;;;;;;6.07;1.90;;;11.50;99.90;;;;;;5029732;28;20192;-88
2023/12/10 12:55:11;;;;;;;9.27;2.75;;;11.90;99.90;;;;;;5030407;28;20202;-87
2023/12/10 12:57:37;;;;;;;4.70;2.33;;;12.00;99.90;;;;;;5028680;28;20220;-87
2023/12/10 13:00:04;;;;;;;4.70;2.03;;;11.60;99.90;;;;;;5029217;28;20240;-87
2023/12/10 13:02:30;;;;;;;7.45;2.83;;;11.50;99.90;;;;;;5025321;28;20202;-87
2023/12/10 13:04:56;;;;;;;2.67;1.63;;;11.70;99.90;;;;;;5029545;28;20190;-88
2023/12/10 13:07:22;;;;;;;4.80;1.43;;;11.90;99.90;;;;;;5027559;28;20209;-88
2023/12/10 13:09:47;;;;;;;8.43;2.40;;;11.80;99.90;;;;;;5028389;28;20700;-87
2023/12/10 13:12:13;;;;;;;6.80;2.40;;;11.30;99.90;;;;;;5035241;28;20197;-88